| Date | Time | Temp. (oF) | Dew Point (oF) | Rel. Hum. (%) | Press. (in.) | Wind Dir. | Wind Speed (mph) | Hourly Rainfall (in.) |
|
|---|---|---|---|---|---|---|---|---|---|
| 1 | 07/01 | 00:00 | 71 | 66 | 85 | 29.72 | SW | 4 | 0.00 |
| 2 | 06/30 | 23:00 | 71 | 66 | 85 | 29.72 | SSW | 5 | 0.00 |
| 3 | 06/30 | 22:00 | 71 | 66 | 85 | 29.72 | SSW | 2 | 0.00 |
| 4 | 06/30 | 21:00 | 70 | 64 | 84 | 29.72 | SW | 1 | 0.05 |
| 5 | 06/30 | 20:00 | 77 | 67 | 72 | 29.72 | SSW | 14 | 0.00 |
| 6 | 06/30 | 19:00 | 78 | 68 | 73 | 29.70 | S | 3 | 0.00 |
| 7 | 06/30 | 18:00 | 79 | 68 | 70 | 29.70 | SSW | 5 | 0.00 |
| 8 | 06/30 | 17:00 | 78 | 66 | 67 | 29.68 | SW | 6 | 0.00 |
| 9 | 06/30 | 16:00 | 79 | 67 | 68 | 29.72 | SSW | 19 | 0.00 |
| 10 | 06/30 | 15:00 | 76 | 65 | 70 | 29.75 | SSW | 10 | 0.00 |
| 11 | 06/30 | 14:00 | 77 | 68 | 75 | 29.76 | SW | 8 | 0.00 |
| 12 | 06/30 | 13:00 | 77 | 70 | 80 | 29.79 | SW | 3 | 0.01 |
| 13 | 06/30 | 12:00 | 76 | 68 | 78 | 29.81 | SSW | 13 | 0.00 |
| 14 | 06/30 | 11:00 | 74 | 68 | 82 | 29.82 | SSW | 10 | 0.00 |
| 15 | 06/30 | 10:00 | 72 | 66 | 82 | 29.82 | SW | 5 | 0.00 |
| 16 | 06/30 | 09:00 | 70 | 64 | 84 | 29.84 | SSW | 5 | 0.00 |
| 17 | 06/30 | 08:00 | 69 | 63 | 84 | 29.84 | SSW | 1 | 0.00 |
| 18 | 06/30 | 07:00 | 68 | 62 | 83 | 29.84 | SW | 1 | 0.00 |
| 19 | 06/30 | 06:00 | 66 | 60 | 83 | 29.83 | SW | 5 | 0.00 |
| 20 | 06/30 | 05:00 | 66 | 59 | 80 | 29.83 | SSE | 3 | 0.00 |
| 21 | 06/30 | 04:00 | 67 | 59 | 78 | 29.83 | SSE | 1 | 0.00 |
| 22 | 06/30 | 03:00 | 66 | 59 | 79 | 29.83 | SSW | 0 | 0.00 |
| 23 | 06/30 | 02:00 | 67 | 59 | 76 | 29.84 | SSW | 0 | 0.00 |
| 24 | 06/30 | 01:00 | 67 | 57 | 71 | 29.85 | SSW | 0 | 0.00 |